createdAt,value
2022-12-25T00:02:40.222Z,7.25
2022-12-25T00:05:48.400Z,7.38
2022-12-25T00:09:03.402Z,7.39
2022-12-25T00:12:18.397Z,7.52
2022-12-25T00:15:27.476Z,7.52
2022-12-25T00:18:36.398Z,7.48
2022-12-25T00:21:51.423Z,7.48
2022-12-25T00:24:53.436Z,7.52
2022-12-25T00:28:08.387Z,7.50
2022-12-25T00:31:16.339Z,7.47
2022-12-25T00:34:31.377Z,7.40
2022-12-25T00:37:40.237Z,7.47
2022-12-25T00:40:55.388Z,7.44
2022-12-25T00:43:57.497Z,7.44
2022-12-25T00:47:12.434Z,7.43
2022-12-25T00:50:27.386Z,7.40
2022-12-25T00:53:49.374Z,7.43
2022-12-25T00:56:51.434Z,7.29
2022-12-25T01:00:06.395Z,7.05
2022-12-25T01:03:22.448Z,6.88
2022-12-25T01:06:31.402Z,6.67
2022-12-25T01:09:40.269Z,6.63
2022-12-25T01:12:56.380Z,6.54
2022-12-25T01:16:05.424Z,6.46
2022-12-25T01:19:20.368Z,6.41
2022-12-25T01:22:29.404Z,6.34
2022-12-25T01:25:44.400Z,6.31
2022-12-25T01:28:46.616Z,6.27
2022-12-25T01:32:02.445Z,6.26
2022-12-25T01:35:04.840Z,6.23
2022-12-25T01:38:19.377Z,6.19
2022-12-25T01:41:23.387Z,6.15
2022-12-25T01:44:44.396Z,6.15
2022-12-25T01:47:53.126Z,6.13
2022-12-25T01:51:13.411Z,6.11
2022-12-25T01:54:37.391Z,6.02
2022-12-25T01:57:46.460Z,5.99
2022-12-25T02:00:55.425Z,6.00
2022-12-25T02:04:25.400Z,5.86
2022-12-25T02:07:29.639Z,5.78
2022-12-25T02:10:44.378Z,5.80
2022-12-25T02:13:59.389Z,5.74
2022-12-25T02:17:32.417Z,5.59
2022-12-25T02:21:21.421Z,5.53
2022-12-25T02:24:37.369Z,5.50
2022-12-25T02:27:52.089Z,5.39
2022-12-25T02:31:17.426Z,5.29
2022-12-25T02:34:30.784Z,5.26
2022-12-25T02:37:54.367Z,5.21
2022-12-25T02:41:08.409Z,5.17
2022-12-25T02:44:20.862Z,5.19
2022-12-25T02:47:30.378Z,5.17
2022-12-25T02:50:45.368Z,5.19
2022-12-25T02:54:10.403Z,5.19
2022-12-25T02:57:29.378Z,5.24
2022-12-25T03:00:41.384Z,5.23
2022-12-25T03:04:00.380Z,5.14
2022-12-25T03:07:21.039Z,5.21
2022-12-25T03:10:39.390Z,5.21
2022-12-25T03:13:45.807Z,5.23
2022-12-25T03:17:03.433Z,5.23
2022-12-25T03:20:06.991Z,5.28
2022-12-25T03:23:27.366Z,5.29
2022-12-25T03:26:36.412Z,5.27
2022-12-25T03:29:51.407Z,5.21
2022-12-25T03:32:53.378Z,5.13
2022-12-25T03:36:19.392Z,5.07
2022-12-25T03:39:49.373Z,4.98
2022-12-25T03:43:43.032Z,4.92
2022-12-25T03:47:12.381Z,4.86
2022-12-25T03:50:44.395Z,4.73
2022-12-25T03:54:12.385Z,4.70
2022-12-25T03:57:14.879Z,4.63
2022-12-25T04:00:29.380Z,4.46
2022-12-25T04:03:37.515Z,4.45
2022-12-25T04:06:46.041Z,4.46
2022-12-25T04:10:02.403Z,4.42
2022-12-25T04:13:04.709Z,4.33
2022-12-25T04:16:19.460Z,4.38
2022-12-25T04:19:21.608Z,4.33
2022-12-25T04:22:36.405Z,4.30
2022-12-25T04:25:45.383Z,4.24
2022-12-25T04:29:00.391Z,4.23
2022-12-25T04:32:15.387Z,4.26
2022-12-25T04:35:24.387Z,4.26
2022-12-25T04:38:40.373Z,4.41
2022-12-25T04:41:49.374Z,4.40
2022-12-25T04:45:11.384Z,4.42
2022-12-25T04:48:26.373Z,4.43
2022-12-25T04:51:36.992Z,4.43
2022-12-25T04:54:58.360Z,4.44
2022-12-25T04:58:07.177Z,4.50
2022-12-25T05:01:16.471Z,4.52
2022-12-25T05:04:25.184Z,4.55
2022-12-25T05:07:40.373Z,4.54
2022-12-25T05:10:42.816Z,4.51
2022-12-25T05:13:57.361Z,4.42
2022-12-25T05:17:12.388Z,4.34
2022-12-25T05:20:21.150Z,4.29
2022-12-25T05:23:29.370Z,4.25
2022-12-25T05:26:44.416Z,4.21
2022-12-25T05:29:46.416Z,4.16
2022-12-25T05:33:01.376Z,4.19
2022-12-25T05:36:12.265Z,4.13
2022-12-25T05:39:28.368Z,4.08
2022-12-25T05:42:37.025Z,3.95
2022-12-25T05:45:52.379Z,4.02
2022-12-25T05:49:01.383Z,3.91
2022-12-25T05:52:16.364Z,3.85
2022-12-25T05:55:24.683Z,3.83
2022-12-25T05:58:41.362Z,3.81
2022-12-25T06:01:43.766Z,3.77
2022-12-25T06:04:58.375Z,3.70
2022-12-25T06:08:07.393Z,3.65
2022-12-25T06:11:16.128Z,3.60
2022-12-25T06:14:24.389Z,3.55
2022-12-25T06:17:33.248Z,3.51
2022-12-25T06:20:48.396Z,3.45
2022-12-25T06:23:57.102Z,3.45
2022-12-25T06:27:05.394Z,3.42
2022-12-25T06:30:14.441Z,3.45
2022-12-25T06:33:23.373Z,3.45
2022-12-25T06:36:32.241Z,3.48
2022-12-25T06:39:47.381Z,3.49
2022-12-25T06:42:56.398Z,3.57
2022-12-25T06:46:15.425Z,3.57
2022-12-25T06:49:24.439Z,3.54
2022-12-25T06:52:33.368Z,3.46
2022-12-25T06:55:48.645Z,3.42
2022-12-25T06:59:12.374Z,3.39
2022-12-25T07:02:22.880Z,3.35
2022-12-25T07:05:32.384Z,3.33
2022-12-25T07:08:47.354Z,3.29
2022-12-25T07:11:55.360Z,3.31
2022-12-25T07:15:04.370Z,3.35
2022-12-25T07:18:13.350Z,3.31
2022-12-25T07:21:22.289Z,3.42
2022-12-25T07:24:31.387Z,3.54
2022-12-25T07:27:39.996Z,3.60
2022-12-25T07:30:54.331Z,3.68
2022-12-25T07:34:03.333Z,3.80
2022-12-25T07:37:18.349Z,3.95
2022-12-25T07:40:27.213Z,3.96
2022-12-25T07:43:36.374Z,3.99
2022-12-25T07:46:45.359Z,3.98
2022-12-25T07:50:00.384Z,4.02
2022-12-25T07:53:09.352Z,4.02
2022-12-25T07:56:31.345Z,3.95
2022-12-25T07:59:40.108Z,3.99
2022-12-25T08:02:48.423Z,4.05
2022-12-25T08:06:08.648Z,4.17
2022-12-25T08:09:23.354Z,4.27
2022-12-25T08:12:32.406Z,4.37
2022-12-25T08:15:48.360Z,4.52
2022-12-25T08:18:57.381Z,4.58
2022-12-25T08:22:12.374Z,4.63
2022-12-25T08:25:21.076Z,4.71
2022-12-25T08:28:29.352Z,4.77
2022-12-25T08:31:46.439Z,4.78
2022-12-25T08:34:55.333Z,4.84
2022-12-25T08:38:04.214Z,4.92
2022-12-25T08:41:21.384Z,5.01
2022-12-25T08:44:23.381Z,5.09
2022-12-25T08:47:38.361Z,5.16
2022-12-25T08:50:56.372Z,5.27
2022-12-25T08:54:11.698Z,5.48
2022-12-25T08:57:20.363Z,5.67
2022-12-25T09:00:29.548Z,5.71
2022-12-25T09:03:38.417Z,6.00
2022-12-25T09:06:47.146Z,6.10
2022-12-25T09:10:02.371Z,6.14
2022-12-25T09:13:18.372Z,6.23
2022-12-25T09:16:27.144Z,6.29
2022-12-25T09:19:35.360Z,6.32
2022-12-25T09:22:44.360Z,6.37
2022-12-25T09:25:59.380Z,6.47
2022-12-25T09:29:08.382Z,6.61
2022-12-25T09:32:17.988Z,6.72
2022-12-25T09:35:33.363Z,6.85
2022-12-25T09:38:48.419Z,6.95
2022-12-25T09:42:08.353Z,7.05
2022-12-25T09:45:32.051Z,7.17
2022-12-25T09:48:52.382Z,7.27
2022-12-25T09:52:05.337Z,7.53
2022-12-25T09:55:33.371Z,7.96
2022-12-25T09:58:42.463Z,8.06
2022-12-25T10:02:00.506Z,8.06
2022-12-25T10:05:21.394Z,8.32
2022-12-25T10:09:00.372Z,8.75
2022-12-25T10:12:34.333Z,9.11
2022-12-25T10:16:28.916Z,9.45
2022-12-25T10:19:58.399Z,9.79
2022-12-25T10:23:16.185Z,10.13
2022-12-25T10:26:33.332Z,10.28
2022-12-25T10:29:35.814Z,10.52
2022-12-25T10:32:51.317Z,10.69
2022-12-25T10:36:06.377Z,10.80
2022-12-25T10:39:20.562Z,10.85
2022-12-25T10:42:29.485Z,10.89
2022-12-25T10:45:56.418Z,10.91
2022-12-25T10:49:12.357Z,10.94
2022-12-25T10:52:30.327Z,10.95
2022-12-25T10:56:03.737Z,10.91
2022-12-25T10:59:18.374Z,10.96
2022-12-25T11:02:27.688Z,11.01
2022-12-25T11:05:43.328Z,11.03
2022-12-25T11:08:53.679Z,11.06
2022-12-25T11:12:09.339Z,11.06
2022-12-25T11:15:58.395Z,11.01
2022-12-25T11:19:39.511Z,11.08
2022-12-25T11:22:52.432Z,11.02
2022-12-25T11:26:04.811Z,10.99
2022-12-25T11:29:43.344Z,11.03
2022-12-25T11:33:00.371Z,11.02
2022-12-25T11:36:29.369Z,10.94
2022-12-25T11:39:41.955Z,10.90
2022-12-25T11:43:07.615Z,10.85
2022-12-25T11:46:20.841Z,10.88
2022-12-25T11:49:37.353Z,10.92
2022-12-25T11:52:49.387Z,10.92
2022-12-25T11:56:25.250Z,11.00
2022-12-25T11:59:49.380Z,11.02
2022-12-25T12:03:03.083Z,11.16
2022-12-25T12:06:39.355Z,11.22
2022-12-25T12:10:15.373Z,11.26
2022-12-25T12:13:35.095Z,11.32
2022-12-25T12:16:50.451Z,11.37
2022-12-25T12:19:59.368Z,11.29
2022-12-25T12:23:22.365Z,11.22
2022-12-25T12:26:34.916Z,11.29
2022-12-25T12:29:58.326Z,11.37
2022-12-25T12:33:08.199Z,11.45
2022-12-25T12:36:29.227Z,11.40
2022-12-25T12:39:47.338Z,11.32
2022-12-25T12:43:02.395Z,11.14
2022-12-25T12:46:16.578Z,11.01
2022-12-25T12:49:34.372Z,10.93
2022-12-25T12:52:43.074Z,10.95
2022-12-25T12:56:20.455Z,10.92
2022-12-25T12:59:44.430Z,10.88
2022-12-25T13:03:14.693Z,10.86
2022-12-25T13:06:41.374Z,10.82
2022-12-25T13:10:17.371Z,10.77
2022-12-25T13:13:39.060Z,10.78
2022-12-25T13:16:50.443Z,10.73
2022-12-25T13:20:01.082Z,10.81
2022-12-25T13:23:32.401Z,10.81
2022-12-25T13:26:41.190Z,10.80
2022-12-25T13:29:57.361Z,10.84
2022-12-25T13:33:12.383Z,10.85
2022-12-25T13:36:21.380Z,10.88
2022-12-25T13:39:37.335Z,10.87
2022-12-25T13:42:46.373Z,10.86
2022-12-25T13:46:01.428Z,10.86
2022-12-25T13:49:13.984Z,10.91
2022-12-25T13:52:49.402Z,10.83
2022-12-25T13:56:11.363Z,10.89
2022-12-25T13:59:23.319Z,10.92
2022-12-25T14:02:42.594Z,10.84
2022-12-25T14:05:44.788Z,10.75
2022-12-25T14:09:02.363Z,10.68
2022-12-25T14:12:19.414Z,10.73
2022-12-25T14:15:23.313Z,10.66
2022-12-25T14:18:40.361Z,10.59
2022-12-25T14:22:05.440Z,10.49
2022-12-25T14:25:21.433Z,10.39
2022-12-25T14:28:30.087Z,10.27
2022-12-25T14:31:46.385Z,10.15
2022-12-25T14:34:54.334Z,10.07
2022-12-25T14:38:09.403Z,10.05
2022-12-25T14:41:31.611Z,9.97
2022-12-25T14:44:47.367Z,9.90
2022-12-25T14:48:25.000Z,9.83
2022-12-25T14:51:29.042Z,9.79
2022-12-25T14:54:44.365Z,9.76
2022-12-25T14:58:03.312Z,9.73
2022-12-25T15:01:12.374Z,9.61
2022-12-25T15:04:21.614Z,9.65
2022-12-25T15:07:38.350Z,9.62
2022-12-25T15:10:59.519Z,9.64
2022-12-25T15:14:09.058Z,9.58
2022-12-25T15:17:34.365Z,9.47
2022-12-25T15:20:36.474Z,9.42
2022-12-25T15:23:51.353Z,9.28
2022-12-25T15:26:53.407Z,9.23
2022-12-25T15:30:10.037Z,9.14
2022-12-25T15:33:18.310Z,9.07
2022-12-25T15:36:34.371Z,9.00
2022-12-25T15:39:50.389Z,8.97
2022-12-25T15:42:59.873Z,8.95
2022-12-25T15:46:15.485Z,8.95
2022-12-25T15:49:17.929Z,8.93
2022-12-25T15:52:32.344Z,8.91
2022-12-25T15:55:40.958Z,8.92
2022-12-25T15:58:55.363Z,8.91
2022-12-25T16:02:00.182Z,8.89
2022-12-25T16:05:15.597Z,8.86
2022-12-25T16:08:17.631Z,8.84
2022-12-25T16:11:32.371Z,8.87
2022-12-25T16:14:41.345Z,8.90
2022-12-25T16:17:50.372Z,8.91
2022-12-25T16:21:06.036Z,8.91
2022-12-25T16:24:21.349Z,8.90
2022-12-25T16:27:23.434Z,8.88
2022-12-25T16:30:38.354Z,8.85
2022-12-25T16:33:46.364Z,8.83
2022-12-25T16:37:01.354Z,8.86
2022-12-25T16:40:10.384Z,8.84
2022-12-25T16:43:23.972Z,8.85
2022-12-25T16:46:39.473Z,8.87
2022-12-25T16:49:48.177Z,8.91
2022-12-25T16:52:56.372Z,8.92
2022-12-25T16:56:13.911Z,8.94
2022-12-25T16:59:22.416Z,8.91
2022-12-25T17:02:37.513Z,8.89
2022-12-25T17:05:46.048Z,8.92
2022-12-25T17:09:05.363Z,8.93
2022-12-25T17:12:14.291Z,8.94
2022-12-25T17:15:23.359Z,8.88
2022-12-25T17:18:38.400Z,8.88
2022-12-25T17:21:47.419Z,8.86
2022-12-25T17:24:56.014Z,8.89
2022-12-25T17:28:11.348Z,8.86
2022-12-25T17:31:14.712Z,8.83
2022-12-25T17:34:29.355Z,8.78
2022-12-25T17:37:44.367Z,8.75
2022-12-25T17:41:04.397Z,8.72
2022-12-25T17:44:06.351Z,8.68
2022-12-25T17:47:21.425Z,8.66
2022-12-25T17:50:43.396Z,8.66
2022-12-25T17:54:02.341Z,8.65
2022-12-25T17:57:10.665Z,8.63
2022-12-25T18:00:26.374Z,8.66
2022-12-25T18:03:35.606Z,8.64
2022-12-25T18:06:50.360Z,8.67
2022-12-25T18:09:59.077Z,8.62
2022-12-25T18:13:07.337Z,8.65
2022-12-25T18:16:17.519Z,8.63
2022-12-25T18:19:33.368Z,8.61
2022-12-25T18:22:42.092Z,8.60
2022-12-25T18:25:50.376Z,8.58
2022-12-25T18:29:05.366Z,8.52
2022-12-25T18:32:14.158Z,8.52
2022-12-25T18:35:22.338Z,8.49
2022-12-25T18:38:37.358Z,8.53
2022-12-25T18:41:46.322Z,8.52
2022-12-25T18:45:01.372Z,8.53
2022-12-25T18:48:17.345Z,8.59
2022-12-25T18:51:36.865Z,8.59
2022-12-25T18:54:52.332Z,8.61
2022-12-25T18:58:01.090Z,8.63
2022-12-25T19:01:34.446Z,8.67
2022-12-25T19:04:43.510Z,8.69
2022-12-25T19:07:58.333Z,8.70
2022-12-25T19:11:15.619Z,8.67
2022-12-25T19:14:25.156Z,8.73
2022-12-25T19:17:34.450Z,8.84
2022-12-25T19:20:43.241Z,8.87
2022-12-25T19:23:52.344Z,8.80
2022-12-25T19:27:07.355Z,8.88
2022-12-25T19:30:16.164Z,8.88
2022-12-25T19:33:31.423Z,8.86
2022-12-25T19:36:40.032Z,8.91
2022-12-25T19:39:49.350Z,8.99
2022-12-25T19:42:58.109Z,9.08
2022-12-25T19:46:07.394Z,9.11
2022-12-25T19:49:22.399Z,9.10
2022-12-25T19:52:31.615Z,9.03
2022-12-25T19:55:46.362Z,9.04
2022-12-25T19:59:01.744Z,9.00
2022-12-25T20:02:17.466Z,8.95
2022-12-25T20:05:26.352Z,8.90
2022-12-25T20:08:35.589Z,8.89
2022-12-25T20:11:45.372Z,8.89
2022-12-25T20:14:54.068Z,8.88
2022-12-25T20:18:03.384Z,8.86
2022-12-25T20:21:15.061Z,8.83
2022-12-25T20:24:31.612Z,8.81
2022-12-25T20:27:33.915Z,8.78
2022-12-25T20:30:49.630Z,8.74
2022-12-25T20:33:52.239Z,8.71
2022-12-25T20:37:07.349Z,8.72
2022-12-25T20:40:11.214Z,8.70
2022-12-25T20:43:26.375Z,8.68
2022-12-25T20:46:35.493Z,8.65
2022-12-25T20:49:44.348Z,8.63
2022-12-25T20:53:00.349Z,8.62
2022-12-25T20:56:11.411Z,8.62
2022-12-25T20:59:32.033Z,8.62
2022-12-25T21:02:37.523Z,8.53
2022-12-25T21:06:02.355Z,8.58
2022-12-25T21:09:11.479Z,8.51
2022-12-25T21:12:20.355Z,8.56
2022-12-25T21:15:29.114Z,8.55
2022-12-25T21:18:37.353Z,8.52
2022-12-25T21:21:46.090Z,8.50
2022-12-25T21:25:01.409Z,8.46
2022-12-25T21:28:03.561Z,8.47
2022-12-25T21:31:18.519Z,8.42
2022-12-25T21:34:27.370Z,8.48
2022-12-25T21:37:42.370Z,8.46
2022-12-25T21:40:57.467Z,8.42
2022-12-25T21:44:06.370Z,8.43
2022-12-25T21:47:21.347Z,8.43
2022-12-25T21:50:23.992Z,8.46
2022-12-25T21:53:39.335Z,8.49
2022-12-25T21:56:48.947Z,8.52
2022-12-25T22:00:03.347Z,8.51
2022-12-25T22:03:12.072Z,8.53
2022-12-25T22:06:28.373Z,8.57
2022-12-25T22:09:30.730Z,8.62
2022-12-25T22:12:45.412Z,8.69
2022-12-25T22:16:10.418Z,8.66
2022-12-25T22:19:12.460Z,8.66
2022-12-25T22:22:30.345Z,8.67
2022-12-25T22:25:45.356Z,8.63
2022-12-25T22:28:47.333Z,8.63
2022-12-25T22:32:02.373Z,8.57
2022-12-25T22:35:05.167Z,8.64
2022-12-25T22:38:20.378Z,8.64
2022-12-25T22:41:22.361Z,8.51
2022-12-25T22:44:39.354Z,8.58
2022-12-25T22:47:54.406Z,8.51
2022-12-25T22:51:03.321Z,8.56
2022-12-25T22:54:12.327Z,8.54
2022-12-25T22:57:27.659Z,8.55
2022-12-25T23:00:46.211Z,8.47
2022-12-25T23:03:55.173Z,8.56
2022-12-25T23:07:10.338Z,8.55
2022-12-25T23:10:26.362Z,8.56
2022-12-25T23:13:35.094Z,8.58
2022-12-25T23:16:50.367Z,8.56
2022-12-25T23:20:00.545Z,8.54
2022-12-25T23:23:09.403Z,8.53
2022-12-25T23:26:20.964Z,8.51
2022-12-25T23:29:29.338Z,8.48
2022-12-25T23:32:39.092Z,8.45
2022-12-25T23:35:47.357Z,8.43
2022-12-25T23:38:56.022Z,8.40
2022-12-25T23:42:05.355Z,8.37
2022-12-25T23:45:14.090Z,8.36
2022-12-25T23:48:22.369Z,8.28
2022-12-25T23:51:31.303Z,8.37
2022-12-25T23:54:40.541Z,8.31
2022-12-25T23:57:55.661Z,8.29
